sensor_id;sensor_type;location;lat;lon;timestamp;pressure;altitude;pressure_sealevel;temperature;humidity
26937;BME280;14495;48.116;11.676;2022-07-12T00:00:33;96174.00;;;17.55;100.00
26937;BME280;14495;48.116;11.676;2022-07-12T00:02:58;96173.31;;;17.42;100.00
26937;BME280;14495;48.116;11.676;2022-07-12T00:05:23;96171.28;;;17.34;100.00
26937;BME280;14495;48.116;11.676;2022-07-12T00:07:49;96178.34;;;17.34;100.00
26937;BME280;14495;48.116;11.676;2022-07-12T00:10:14;96179.47;;;17.31;100.00
26937;BME280;14495;48.116;11.676;2022-07-12T00:12:39;96175.72;;;17.34;100.00
26937;BME280;14495;48.116;11.676;2022-07-12T00:15:05;96178.25;;;17.35;100.00
26937;BME280;14495;48.116;11.676;2022-07-12T00:17:31;96180.41;;;17.30;100.00
26937;BME280;14495;48.116;11.676;2022-07-12T00:19:56;96172.03;;;17.25;100.00
26937;BME280;14495;48.116;11.676;2022-07-12T00:22:21;96174.31;;;17.18;100.00
26937;BME280;14495;48.116;11.676;2022-07-12T00:24:47;96173.22;;;17.21;100.00
26937;BME280;14495;48.116;11.676;2022-07-12T00:27:13;96176.25;;;17.16;100.00
26937;BME280;14495;48.116;11.676;2022-07-12T00:29:38;96175.28;;;17.17;100.00
26937;BME280;14495;48.116;11.676;2022-07-12T00:32:04;96168.47;;;17.04;100.00
26937;BME280;14495;48.116;11.676;2022-07-12T00:34:29;96171.84;;;16.94;100.00
26937;BME280;14495;48.116;11.676;2022-07-12T00:36:54;96173.38;;;16.97;100.00
26937;BME280;14495;48.116;11.676;2022-07-12T00:39:19;96176.63;;;17.00;100.00
26937;BME280;14495;48.116;11.676;2022-07-12T00:41:48;96180.34;;;16.98;100.00
26937;BME280;14495;48.116;11.676;2022-07-12T00:44:13;96174.09;;;16.88;100.00
26937;BME280;14495;48.116;11.676;2022-07-12T00:46:39;96186.44;;;16.76;100.00
26937;BME280;14495;48.116;11.676;2022-07-12T00:49:04;96179.97;;;16.91;100.00
26937;BME280;14495;48.116;11.676;2022-07-12T00:51:30;96180.69;;;16.82;100.00
26937;BME280;14495;48.116;11.676;2022-07-12T00:53:57;96184.91;;;16.73;100.00
26937;BME280;14495;48.116;11.676;2022-07-12T00:56:24;96182.47;;;16.81;100.00
26937;BME280;14495;48.116;11.676;2022-07-12T00:58:50;96182.41;;;16.83;100.00
26937;BME280;14495;48.116;11.676;2022-07-12T01:01:15;96185.34;;;16.78;100.00
26937;BME280;14495;48.116;11.676;2022-07-12T01:03:41;96167.63;;;16.80;100.00
26937;BME280;14495;48.116;11.676;2022-07-12T01:06:07;96170.59;;;16.76;100.00
26937;BME280;14495;48.116;11.676;2022-07-12T01:08:33;96171.56;;;16.75;100.00
26937;BME280;14495;48.116;11.676;2022-07-12T01:10:59;96176.59;;;16.78;100.00
26937;BME280;14495;48.116;11.676;2022-07-12T01:13:25;96175.53;;;16.80;100.00
26937;BME280;14495;48.116;11.676;2022-07-12T01:15:50;96172.53;;;16.74;100.00
26937;BME280;14495;48.116;11.676;2022-07-12T01:18:18;96178.91;;;16.71;100.00
26937;BME280;14495;48.116;11.676;2022-07-12T01:20:44;96172.75;;;16.71;100.00
26937;BME280;14495;48.116;11.676;2022-07-12T01:23:11;96173.84;;;16.68;100.00
26937;BME280;14495;48.116;11.676;2022-07-12T01:25:37;96169.91;;;16.62;100.00
26937;BME280;14495;48.116;11.676;2022-07-12T01:28:02;96176.13;;;16.50;100.00
26937;BME280;14495;48.116;11.676;2022-07-12T01:30:28;96175.16;;;16.40;100.00
26937;BME280;14495;48.116;11.676;2022-07-12T01:32:53;96174.69;;;16.46;100.00
26937;BME280;14495;48.116;11.676;2022-07-12T01:35:20;96174.44;;;16.49;100.00
26937;BME280;14495;48.116;11.676;2022-07-12T01:37:46;96185.00;;;16.38;100.00
26937;BME280;14495;48.116;11.676;2022-07-12T01:40:13;96178.03;;;16.37;100.00
26937;BME280;14495;48.116;11.676;2022-07-12T01:42:39;96175.97;;;16.29;100.00
26937;BME280;14495;48.116;11.676;2022-07-12T01:45:06;96172.25;;;16.32;100.00
26937;BME280;14495;48.116;11.676;2022-07-12T01:47:32;96167.09;;;16.41;100.00
26937;BME280;14495;48.116;11.676;2022-07-12T01:49:58;96164.72;;;16.38;100.00
26937;BME280;14495;48.116;11.676;2022-07-12T01:52:23;96168.06;;;16.29;100.00
26937;BME280;14495;48.116;11.676;2022-07-12T01:54:49;96170.81;;;16.28;100.00
26937;BME280;14495;48.116;11.676;2022-07-12T01:57:15;96178.00;;;16.26;100.00
26937;BME280;14495;48.116;11.676;2022-07-12T01:59:41;96172.63;;;16.27;100.00
26937;BME280;14495;48.116;11.676;2022-07-12T02:02:07;96174.97;;;16.19;100.00
26937;BME280;14495;48.116;11.676;2022-07-12T02:04:33;96168.63;;;16.10;100.00
26937;BME280;14495;48.116;11.676;2022-07-12T02:06:59;96170.16;;;16.01;100.00
26937;BME280;14495;48.116;11.676;2022-07-12T02:09:25;96170.72;;;15.82;100.00
26937;BME280;14495;48.116;11.676;2022-07-12T02:11:50;96176.22;;;15.91;100.00
26937;BME280;14495;48.116;11.676;2022-07-12T02:14:16;96174.31;;;15.93;100.00
26937;BME280;14495;48.116;11.676;2022-07-12T02:16:42;96173.13;;;15.97;100.00
26937;BME280;14495;48.116;11.676;2022-07-12T02:19:08;96168.06;;;15.82;100.00
26937;BME280;14495;48.116;11.676;2022-07-12T02:21:34;96171.69;;;15.69;100.00
26937;BME280;14495;48.116;11.676;2022-07-12T02:24:00;96168.66;;;15.62;100.00
26937;BME280;14495;48.116;11.676;2022-07-12T02:26:25;96164.16;;;15.64;100.00
26937;BME280;14495;48.116;11.676;2022-07-12T02:28:51;96163.75;;;15.57;100.00
26937;BME280;14495;48.116;11.676;2022-07-12T02:31:16;96171.53;;;15.59;100.00
26937;BME280;14495;48.116;11.676;2022-07-12T02:33:42;96161.88;;;15.46;100.00
26937;BME280;14495;48.116;11.676;2022-07-12T02:36:07;96172.63;;;15.43;100.00
26937;BME280;14495;48.116;11.676;2022-07-12T02:38:33;96163.06;;;15.42;100.00
26937;BME280;14495;48.116;11.676;2022-07-12T02:40:58;96170.25;;;15.40;100.00
26937;BME280;14495;48.116;11.676;2022-07-12T02:43:28;96166.91;;;15.38;100.00
26937;BME280;14495;48.116;11.676;2022-07-12T02:46:01;96163.06;;;15.42;100.00
26937;BME280;14495;48.116;11.676;2022-07-12T02:48:27;96161.94;;;15.34;100.00
26937;BME280;14495;48.116;11.676;2022-07-12T02:50:53;96167.31;;;15.32;100.00
26937;BME280;14495;48.116;11.676;2022-07-12T02:53:18;96169.00;;;15.33;100.00
26937;BME280;14495;48.116;11.676;2022-07-12T02:55:43;96167.72;;;15.15;100.00
26937;BME280;14495;48.116;11.676;2022-07-12T02:58:09;96168.03;;;15.10;100.00
26937;BME280;14495;48.116;11.676;2022-07-12T03:00:35;96166.81;;;15.03;100.00
26937;BME280;14495;48.116;11.676;2022-07-12T03:03:03;96166.41;;;14.96;100.00
26937;BME280;14495;48.116;11.676;2022-07-12T03:05:29;96165.59;;;14.83;100.00
26937;BME280;14495;48.116;11.676;2022-07-12T03:07:54;96172.50;;;14.84;100.00
26937;BME280;14495;48.116;11.676;2022-07-12T03:10:19;96169.06;;;14.71;100.00
26937;BME280;14495;48.116;11.676;2022-07-12T03:12:45;96175.16;;;14.71;100.00
26937;BME280;14495;48.116;11.676;2022-07-12T03:15:11;96175.50;;;14.66;100.00
26937;BME280;14495;48.116;11.676;2022-07-12T03:17:36;96167.06;;;14.74;100.00
26937;BME280;14495;48.116;11.676;2022-07-12T03:20:05;96174.03;;;14.62;100.00
26937;BME280;14495;48.116;11.676;2022-07-12T03:22:32;96174.03;;;14.49;100.00
26937;BME280;14495;48.116;11.676;2022-07-12T03:24:58;96180.63;;;14.55;100.00
26937;BME280;14495;48.116;11.676;2022-07-12T03:27:23;96176.53;;;14.51;100.00
26937;BME280;14495;48.116;11.676;2022-07-12T03:29:48;96181.69;;;14.53;100.00
26937;BME280;14495;48.116;11.676;2022-07-12T03:32:14;96180.63;;;14.55;100.00
26937;BME280;14495;48.116;11.676;2022-07-12T03:34:39;96176.00;;;14.46;100.00
26937;BME280;14495;48.116;11.676;2022-07-12T03:37:04;96183.47;;;14.39;100.00
26937;BME280;14495;48.116;11.676;2022-07-12T03:39:30;96180.53;;;14.44;100.00
26937;BME280;14495;48.116;11.676;2022-07-12T03:41:55;96178.84;;;14.56;100.00
26937;BME280;14495;48.116;11.676;2022-07-12T03:44:20;96190.00;;;14.34;100.00
26937;BME280;14495;48.116;11.676;2022-07-12T03:46:46;96186.19;;;14.38;100.00
26937;BME280;14495;48.116;11.676;2022-07-12T03:49:13;96186.19;;;14.38;100.00
26937;BME280;14495;48.116;11.676;2022-07-12T03:51:38;96186.19;;;14.50;100.00
26937;BME280;14495;48.116;11.676;2022-07-12T03:54:03;96187.47;;;14.45;100.00
26937;BME280;14495;48.116;11.676;2022-07-12T03:56:30;96185.16;;;14.40;100.00
26937;BME280;14495;48.116;11.676;2022-07-12T03:59:14;96199.25;;;14.52;100.00
26937;BME280;14495;48.116;11.676;2022-07-12T04:01:39;96200.34;;;14.62;100.00
26937;BME280;14495;48.116;11.676;2022-07-12T04:04:05;96195.72;;;14.66;100.00
26937;BME280;14495;48.116;11.676;2022-07-12T04:06:30;96202.19;;;14.86;100.00
26937;BME280;14495;48.116;11.676;2022-07-12T04:08:55;96198.84;;;14.71;100.00
26937;BME280;14495;48.116;11.676;2022-07-12T04:11:20;96207.38;;;14.62;100.00
26937;BME280;14495;48.116;11.676;2022-07-12T04:13:46;96209.50;;;14.69;100.00
26937;BME280;14495;48.116;11.676;2022-07-12T04:16:11;96207.47;;;14.73;100.00
26937;BME280;14495;48.116;11.676;2022-07-12T04:18:37;96205.34;;;14.78;100.00
26937;BME280;14495;48.116;11.676;2022-07-12T04:21:03;96207.69;;;14.83;100.00
26937;BME280;14495;48.116;11.676;2022-07-12T04:23:28;96205.44;;;14.89;100.00
26937;BME280;14495;48.116;11.676;2022-07-12T04:25:53;96215.00;;;15.03;100.00
26937;BME280;14495;48.116;11.676;2022-07-12T04:28:19;96212.28;;;15.05;100.00
26937;BME280;14495;48.116;11.676;2022-07-12T04:30:44;96213.66;;;14.98;100.00
26937;BME280;14495;48.116;11.676;2022-07-12T04:33:11;96209.81;;;15.15;100.00
26937;BME280;14495;48.116;11.676;2022-07-12T04:35:37;96209.28;;;15.22;100.00
26937;BME280;14495;48.116;11.676;2022-07-12T04:38:03;96208.19;;;15.25;100.00
26937;BME280;14495;48.116;11.676;2022-07-12T04:40:28;96203.38;;;15.19;100.00
26937;BME280;14495;48.116;11.676;2022-07-12T04:42:53;96208.81;;;15.28;100.00
26937;BME280;14495;48.116;11.676;2022-07-12T04:45:19;96205.88;;;15.33;100.00
26937;BME280;14495;48.116;11.676;2022-07-12T04:47:44;96209.03;;;15.38;100.00
26937;BME280;14495;48.116;11.676;2022-07-12T04:50:10;96207.13;;;15.40;100.00
26937;BME280;14495;48.116;11.676;2022-07-12T04:52:36;96204.44;;;15.53;100.00
26937;BME280;14495;48.116;11.676;2022-07-12T04:55:02;96205.47;;;15.51;100.00
26937;BME280;14495;48.116;11.676;2022-07-12T04:57:27;96204.31;;;15.55;100.00
26937;BME280;14495;48.116;11.676;2022-07-12T04:59:53;96213.94;;;15.67;100.00
26937;BME280;14495;48.116;11.676;2022-07-12T05:02:18;96213.81;;;15.81;100.00
26937;BME280;14495;48.116;11.676;2022-07-12T05:04:44;96218.28;;;15.92;100.00
26937;BME280;14495;48.116;11.676;2022-07-12T05:07:10;96220.59;;;16.08;100.00
26937;BME280;14495;48.116;11.676;2022-07-12T05:09:35;96218.50;;;16.24;100.00
26937;BME280;14495;48.116;11.676;2022-07-12T05:12:00;96215.88;;;16.36;100.00
26937;BME280;14495;48.116;11.676;2022-07-12T05:14:26;96227.44;;;16.46;100.00
26937;BME280;14495;48.116;11.676;2022-07-12T05:16:51;96215.25;;;16.68;100.00
26937;BME280;14495;48.116;11.676;2022-07-12T05:19:17;96221.00;;;16.84;100.00
26937;BME280;14495;48.116;11.676;2022-07-12T05:21:42;96225.34;;;16.96;100.00
26937;BME280;14495;48.116;11.676;2022-07-12T05:24:08;96229.91;;;17.06;100.00
26937;BME280;14495;48.116;11.676;2022-07-12T05:26:34;96225.81;;;17.13;100.00
26937;BME280;14495;48.116;11.676;2022-07-12T05:28:59;96227.03;;;17.20;100.00
26937;BME280;14495;48.116;11.676;2022-07-12T05:31:25;96224.59;;;17.28;100.00
26937;BME280;14495;48.116;11.676;2022-07-12T05:33:50;96227.94;;;17.53;100.00
26937;BME280;14495;48.116;11.676;2022-07-12T05:36:16;96229.25;;;17.47;100.00
26937;BME280;14495;48.116;11.676;2022-07-12T05:38:41;96229.25;;;17.47;100.00
26937;BME280;14495;48.116;11.676;2022-07-12T05:41:06;96234.88;;;17.54;100.00
26937;BME280;14495;48.116;11.676;2022-07-12T05:43:32;96228.91;;;17.41;100.00
26937;BME280;14495;48.116;11.676;2022-07-12T05:45:57;96232.66;;;17.38;100.00
26937;BME280;14495;48.116;11.676;2022-07-12T05:48:22;96236.72;;;17.31;100.00
26937;BME280;14495;48.116;11.676;2022-07-12T05:50:48;96238.03;;;17.36;100.00
26937;BME280;14495;48.116;11.676;2022-07-12T05:53:13;96237.78;;;17.39;100.00
26937;BME280;14495;48.116;11.676;2022-07-12T05:55:51;96241.59;;;17.58;100.00
26937;BME280;14495;48.116;11.676;2022-07-12T05:58:18;96243.50;;;17.56;100.00
26937;BME280;14495;48.116;11.676;2022-07-12T06:00:44;96253.69;;;17.72;100.00
26937;BME280;14495;48.116;11.676;2022-07-12T06:03:10;96254.16;;;17.88;100.00
26937;BME280;14495;48.116;11.676;2022-07-12T06:05:37;96252.81;;;17.94;100.00
26937;BME280;14495;48.116;11.676;2022-07-12T06:08:02;96254.16;;;18.21;100.00
26937;BME280;14495;48.116;11.676;2022-07-12T06:10:28;96265.91;;;18.28;100.00
26937;BME280;14495;48.116;11.676;2022-07-12T06:12:53;96256.84;;;18.09;100.00
26937;BME280;14495;48.116;11.676;2022-07-12T06:15:18;96265.00;;;18.18;100.00
26937;BME280;14495;48.116;11.676;2022-07-12T06:17:44;96261.13;;;18.22;100.00
26937;BME280;14495;48.116;11.676;2022-07-12T06:20:10;96267.94;;;18.03;100.00
26937;BME280;14495;48.116;11.676;2022-07-12T06:22:35;96266.34;;;18.12;100.00
26937;BME280;14495;48.116;11.676;2022-07-12T06:25:00;96258.44;;;18.01;100.00
26937;BME280;14495;48.116;11.676;2022-07-12T06:27:26;96261.44;;;18.28;100.00
26937;BME280;14495;48.116;11.676;2022-07-12T06:29:52;96263.31;;;18.16;100.00
26937;BME280;14495;48.116;11.676;2022-07-12T06:32:17;96271.72;;;18.22;100.00
26937;BME280;14495;48.116;11.676;2022-07-12T06:34:43;96264.81;;;18.30;100.00
26937;BME280;14495;48.116;11.676;2022-07-12T06:37:08;96266.66;;;18.19;100.00
26937;BME280;14495;48.116;11.676;2022-07-12T06:39:35;96270.13;;;18.51;100.00
26937;BME280;14495;48.116;11.676;2022-07-12T06:42:01;96267.47;;;18.51;100.00
26937;BME280;14495;48.116;11.676;2022-07-12T06:44:32;96259.09;;;18.88;100.00
26937;BME280;14495;48.116;11.676;2022-07-12T06:46:58;96262.44;;;19.21;100.00
26937;BME280;14495;48.116;11.676;2022-07-12T06:49:23;96260.22;;;19.26;100.00
26937;BME280;14495;48.116;11.676;2022-07-12T06:51:49;96266.28;;;19.48;100.00
26937;BME280;14495;48.116;11.676;2022-07-12T06:54:14;96260.44;;;19.44;100.00
26937;BME280;14495;48.116;11.676;2022-07-12T06:56:39;96260.19;;;19.57;100.00
26937;BME280;14495;48.116;11.676;2022-07-12T06:59:05;96254.50;;;19.72;100.00
26937;BME280;14495;48.116;11.676;2022-07-12T07:01:30;96257.09;;;19.52;100.00
26937;BME280;14495;48.116;11.676;2022-07-12T07:03:55;96258.25;;;19.69;100.00
26937;BME280;14495;48.116;11.676;2022-07-12T07:06:21;96249.38;;;19.80;100.00
26937;BME280;14495;48.116;11.676;2022-07-12T07:08:46;96252.94;;;19.69;100.00
26937;BME280;14495;48.116;11.676;2022-07-12T07:11:12;96251.34;;;20.26;100.00
26937;BME280;14495;48.116;11.676;2022-07-12T07:13:37;96254.56;;;20.50;100.00
26937;BME280;14495;48.116;11.676;2022-07-12T07:16:02;96266.56;;;20.15;100.00
26937;BME280;14495;48.116;11.676;2022-07-12T07:18:28;96257.50;;;19.98;100.00
26937;BME280;14495;48.116;11.676;2022-07-12T07:20:53;96259.47;;;19.55;100.00
26937;BME280;14495;48.116;11.676;2022-07-12T07:23:18;96261.59;;;19.61;100.00
26937;BME280;14495;48.116;11.676;2022-07-12T07:25:45;96258.81;;;19.63;100.00
26937;BME280;14495;48.116;11.676;2022-07-12T07:28:11;96267.22;;;19.78;100.00
26937;BME280;14495;48.116;11.676;2022-07-12T07:30:37;96270.22;;;19.54;100.00
26937;BME280;14495;48.116;11.676;2022-07-12T07:33:18;96264.66;;;19.66;100.00
26937;BME280;14495;48.116;11.676;2022-07-12T07:35:43;96270.06;;;19.86;100.00
26937;BME280;14495;48.116;11.676;2022-07-12T07:38:09;96259.16;;;20.47;100.00
26937;BME280;14495;48.116;11.676;2022-07-12T07:40:34;96269.22;;;20.54;94.34
26937;BME280;14495;48.116;11.676;2022-07-12T07:43:00;96269.22;;;20.73;98.73
26937;BME280;14495;48.116;11.676;2022-07-12T07:45:25;96267.50;;;20.82;93.41
26937;BME280;14495;48.116;11.676;2022-07-12T07:47:50;96269.84;;;20.95;87.40
26937;BME280;14495;48.116;11.676;2022-07-12T07:50:16;96269.53;;;21.17;84.80
26937;BME280;14495;48.116;11.676;2022-07-12T07:52:41;96266.88;;;21.17;77.73
26937;BME280;14495;48.116;11.676;2022-07-12T07:55:07;96277.47;;;21.27;81.93
26937;BME280;14495;48.116;11.676;2022-07-12T07:57:32;96275.69;;;21.55;80.74
26937;BME280;14495;48.116;11.676;2022-07-12T07:59:58;96268.47;;;21.93;74.98
26937;BME280;14495;48.116;11.676;2022-07-12T08:02:23;96268.84;;;21.98;72.53
26937;BME280;14495;48.116;11.676;2022-07-12T08:04:48;96261.16;;;22.13;72.70
26937;BME280;14495;48.116;11.676;2022-07-12T08:07:14;96269.94;;;21.78;71.80
26937;BME280;14495;48.116;11.676;2022-07-12T08:09:39;96273.41;;;22.24;69.95
26937;BME280;14495;48.116;11.676;2022-07-12T08:12:05;96268.22;;;22.32;67.29
26937;BME280;14495;48.116;11.676;2022-07-12T08:14:30;96269.09;;;22.23;67.46
26937;BME280;14495;48.116;11.676;2022-07-12T08:16:56;96276.72;;;22.36;64.91
26937;BME280;14495;48.116;11.676;2022-07-12T08:19:21;96270.66;;;22.70;62.08
26937;BME280;14495;48.116;11.676;2022-07-12T08:21:46;96260.53;;;22.73;60.16
26937;BME280;14495;48.116;11.676;2022-07-12T08:24:12;96270.25;;;22.38;64.30
26937;BME280;14495;48.116;11.676;2022-07-12T08:26:37;96274.84;;;22.00;64.97
26937;BME280;14495;48.116;11.676;2022-07-12T08:29:03;96277.03;;;21.59;65.24
26937;BME280;14495;48.116;11.676;2022-07-12T08:31:28;96282.38;;;21.59;67.19
26937;BME280;14495;48.116;11.676;2022-07-12T08:33:53;96282.13;;;21.43;67.89
26937;BME280;14495;48.116;11.676;2022-07-12T08:36:18;96279.69;;;21.69;63.83
26937;BME280;14495;48.116;11.676;2022-07-12T08:38:44;96279.22;;;22.82;64.27
26937;BME280;14495;48.116;11.676;2022-07-12T08:41:13;96278.00;;;22.32;62.15
26937;BME280;14495;48.116;11.676;2022-07-12T08:43:39;96282.38;;;22.05;64.83
26937;BME280;14495;48.116;11.676;2022-07-12T08:46:05;96286.91;;;21.49;68.00
26937;BME280;14495;48.116;11.676;2022-07-12T08:48:32;96286.22;;;21.37;68.23
26937;BME280;14495;48.116;11.676;2022-07-12T08:51:06;96286.75;;;21.41;68.57
26937;BME280;14495;48.116;11.676;2022-07-12T08:53:32;96291.91;;;21.80;60.37
26937;BME280;14495;48.116;11.676;2022-07-12T08:55:57;96286.81;;;22.68;61.78
26937;BME280;14495;48.116;11.676;2022-07-12T08:58:23;96295.28;;;22.90;62.22
26937;BME280;14495;48.116;11.676;2022-07-12T09:00:48;96293.78;;;23.40;59.23
26937;BME280;14495;48.116;11.676;2022-07-12T09:03:14;96285.13;;;23.11;57.80
26937;BME280;14495;48.116;11.676;2022-07-12T09:05:47;96284.78;;;23.41;56.87
26937;BME280;14495;48.116;11.676;2022-07-12T09:08:12;96294.16;;;23.19;55.64
26937;BME280;14495;48.116;11.676;2022-07-12T09:13:15;96294.88;;;23.89;53.67
26937;BME280;14495;48.116;11.676;2022-07-12T09:15:41;96294.31;;;24.61;52.31
26937;BME280;14495;48.116;11.676;2022-07-12T09:18:07;96294.28;;;25.11;52.90
26937;BME280;14495;48.116;11.676;2022-07-12T09:20:40;96291.69;;;25.58;47.82
26937;BME280;14495;48.116;11.676;2022-07-12T09:23:08;96293.97;;;24.89;49.18
26937;BME280;14495;48.116;11.676;2022-07-12T09:25:35;96291.59;;;23.78;50.99
26937;BME280;14495;48.116;11.676;2022-07-12T09:28:04;96293.69;;;23.23;53.38
26937;BME280;14495;48.116;11.676;2022-07-12T09:30:30;96293.97;;;22.94;54.94
26937;BME280;14495;48.116;11.676;2022-07-12T09:33:04;96293.97;;;22.94;55.43
26937;BME280;14495;48.116;11.676;2022-07-12T09:38:52;96303.41;;;22.62;51.93
26937;BME280;14495;48.116;11.676;2022-07-12T09:41:20;96310.16;;;22.74;54.11
26937;BME280;14495;48.116;11.676;2022-07-12T09:43:46;96309.84;;;22.77;56.05
26937;BME280;14495;48.116;11.676;2022-07-12T09:46:13;96317.44;;;23.08;55.15
26937;BME280;14495;48.116;11.676;2022-07-12T09:48:40;96309.00;;;22.95;55.51
26937;BME280;14495;48.116;11.676;2022-07-12T09:51:08;96310.22;;;23.27;54.41
26937;BME280;14495;48.116;11.676;2022-07-12T09:53:49;96300.53;;;23.26;53.58
26937;BME280;14495;48.116;11.676;2022-07-12T09:56:16;96303.84;;;23.20;53.95
26937;BME280;14495;48.116;11.676;2022-07-12T09:58:55;96300.09;;;23.30;52.24
26937;BME280;14495;48.116;11.676;2022-07-12T10:01:21;96303.25;;;24.03;53.08
26937;BME280;14495;48.116;11.676;2022-07-12T10:03:50;96313.38;;;24.66;52.19
26937;BME280;14495;48.116;11.676;2022-07-12T10:06:20;96314.22;;;24.75;52.12
26937;BME280;14495;48.116;11.676;2022-07-12T10:08:49;96311.69;;;23.90;52.17
26937;BME280;14495;48.116;11.676;2022-07-12T10:11:15;96313.03;;;24.69;51.76
26937;BME280;14495;48.116;11.676;2022-07-12T10:13:40;96306.63;;;25.84;48.59
26937;BME280;14495;48.116;11.676;2022-07-12T10:16:08;96313.31;;;25.40;48.99
26937;BME280;14495;48.116;11.676;2022-07-12T10:18:35;96317.03;;;24.82;50.02
26937;BME280;14495;48.116;11.676;2022-07-12T10:21:00;96309.28;;;24.29;50.52
26937;BME280;14495;48.116;11.676;2022-07-12T10:25:51;96316.72;;;24.77;51.86
26937;BME280;14495;48.116;11.676;2022-07-12T10:28:16;96315.16;;;25.32;50.06
26937;BME280;14495;48.116;11.676;2022-07-12T10:30:44;96311.84;;;27.24;47.93
26937;BME280;14495;48.116;11.676;2022-07-12T10:33:17;96309.63;;;27.51;44.63
26937;BME280;14495;48.116;11.676;2022-07-12T10:36:02;96299.81;;;27.28;43.82
26937;BME280;14495;48.116;11.676;2022-07-12T10:38:29;96316.50;;;26.46;45.41
26937;BME280;14495;48.116;11.676;2022-07-12T10:40:54;96313.34;;;26.19;45.57
26937;BME280;14495;48.116;11.676;2022-07-12T10:43:29;96319.84;;;26.25;45.28
26937;BME280;14495;48.116;11.676;2022-07-12T10:46:18;96310.03;;;25.70;46.32
26937;BME280;14495;48.116;11.676;2022-07-12T10:48:44;96305.31;;;25.16;47.13
26937;BME280;14495;48.116;11.676;2022-07-12T10:51:14;96316.69;;;24.85;48.03
26937;BME280;14495;48.116;11.676;2022-07-12T10:53:40;96309.34;;;24.70;48.81
26937;BME280;14495;48.116;11.676;2022-07-12T10:56:14;96310.91;;;24.06;50.75
26937;BME280;14495;48.116;11.676;2022-07-12T10:58:43;96309.03;;;23.90;51.01
26937;BME280;14495;48.116;11.676;2022-07-12T11:01:11;96305.91;;;24.03;51.22
26937;BME280;14495;48.116;11.676;2022-07-12T11:03:40;96313.03;;;23.94;51.15
26937;BME280;14495;48.116;11.676;2022-07-12T11:06:08;96313.53;;;25.78;49.15
26937;BME280;14495;48.116;11.676;2022-07-12T11:08:59;96302.63;;;28.16;42.87
26937;BME280;14495;48.116;11.676;2022-07-12T11:11:27;96302.38;;;28.69;41.50
26937;BME280;14495;48.116;11.676;2022-07-12T11:13:53;96304.44;;;28.30;41.87
26937;BME280;14495;48.116;11.676;2022-07-12T11:16:20;96308.06;;;28.23;39.35
26937;BME280;14495;48.116;11.676;2022-07-12T11:18:46;96297.53;;;29.36;39.03
26937;BME280;14495;48.116;11.676;2022-07-12T11:21:11;96303.47;;;27.87;40.23
26937;BME280;14495;48.116;11.676;2022-07-12T11:23:37;96303.84;;;26.63;42.70
26937;BME280;14495;48.116;11.676;2022-07-12T11:26:03;96306.63;;;26.23;43.73
26937;BME280;14495;48.116;11.676;2022-07-12T11:28:31;96307.63;;;25.83;44.95
26937;BME280;14495;48.116;11.676;2022-07-12T11:31:04;96304.03;;;24.79;46.56
26937;BME280;14495;48.116;11.676;2022-07-12T11:33:35;96290.88;;;26.75;43.42
26937;BME280;14495;48.116;11.676;2022-07-12T11:36:03;96290.69;;;28.40;40.00
26937;BME280;14495;48.116;11.676;2022-07-12T11:38:29;96283.47;;;28.84;39.14
26937;BME280;14495;48.116;11.676;2022-07-12T11:40:55;96289.44;;;28.21;40.40
26937;BME280;14495;48.116;11.676;2022-07-12T11:43:22;96287.91;;;29.20;39.26
26937;BME280;14495;48.116;11.676;2022-07-12T11:45:48;96284.59;;;29.94;37.37
26937;BME280;14495;48.116;11.676;2022-07-12T11:48:13;96288.91;;;30.37;35.29
26937;BME280;14495;48.116;11.676;2022-07-12T11:50:42;96280.44;;;29.15;35.50
26937;BME280;14495;48.116;11.676;2022-07-12T11:55:45;96276.09;;;30.72;35.32
26937;BME280;14495;48.116;11.676;2022-07-12T11:58:10;96278.56;;;30.34;36.10
26937;BME280;14495;48.116;11.676;2022-07-12T12:00:36;96281.66;;;29.47;35.23
26937;BME280;14495;48.116;11.676;2022-07-12T12:03:01;96282.94;;;28.95;37.93
26937;BME280;14495;48.116;11.676;2022-07-12T12:05:27;96291.84;;;28.74;37.29
26937;BME280;14495;48.116;11.676;2022-07-12T12:07:52;96283.06;;;28.44;38.58
26937;BME280;14495;48.116;11.676;2022-07-12T12:10:18;96283.25;;;27.02;39.98
26937;BME280;14495;48.116;11.676;2022-07-12T12:12:52;96281.38;;;26.41;41.42
26937;BME280;14495;48.116;11.676;2022-07-12T12:15:19;96281.38;;;26.18;41.73
26937;BME280;14495;48.116;11.676;2022-07-12T12:17:52;96285.88;;;27.10;40.45
26937;BME280;14495;48.116;11.676;2022-07-12T12:20:19;96272.72;;;26.62;41.17
26937;BME280;14495;48.116;11.676;2022-07-12T12:22:47;96267.38;;;28.90;38.06
26937;BME280;14495;48.116;11.676;2022-07-12T12:25:14;96262.25;;;30.07;35.56
26937;BME280;14495;48.116;11.676;2022-07-12T12:27:47;96272.19;;;31.28;33.48
26937;BME280;14495;48.116;11.676;2022-07-12T12:30:15;96282.53;;;30.64;32.74
26937;BME280;14495;48.116;11.676;2022-07-12T12:35:10;96276.94;;;30.66;32.98
26937;BME280;14495;48.116;11.676;2022-07-12T12:37:35;96282.16;;;30.74;34.08
26937;BME280;14495;48.116;11.676;2022-07-12T12:40:02;96273.63;;;31.51;33.37
26937;BME280;14495;48.116;11.676;2022-07-12T12:42:28;96269.25;;;32.02;31.96
26937;BME280;14495;48.116;11.676;2022-07-12T12:44:53;96268.59;;;32.51;31.31
26937;BME280;14495;48.116;11.676;2022-07-12T12:47:18;96269.06;;;31.18;32.37
26937;BME280;14495;48.116;11.676;2022-07-12T12:49:56;96258.09;;;31.91;32.79
26937;BME280;14495;48.116;11.676;2022-07-12T12:52:23;96267.56;;;32.21;31.87